sensor_id;sensor_type;location;lat;lon;timestamp;P1;durP1;ratioP1;P2;durP2;ratioP2
78796;SDS011;68145;52.514;13.460;2023-10-31T00:01:24;11.65;;;4.72;;
78796;SDS011;68145;52.514;13.460;2023-10-31T00:03:51;11.73;;;5.53;;
78796;SDS011;68145;52.514;13.460;2023-10-31T00:06:17;8.55;;;4.40;;
78796;SDS011;68145;52.514;13.460;2023-10-31T00:08:46;8.10;;;4.43;;
78796;SDS011;68145;52.514;13.460;2023-10-31T00:11:12;9.27;;;4.88;;
78796;SDS011;68145;52.514;13.460;2023-10-31T00:13:38;38.92;;;23.27;;
78796;SDS011;68145;52.514;13.460;2023-10-31T00:16:04;9.93;;;7.25;;
78796;SDS011;68145;52.514;13.460;2023-10-31T00:18:32;8.27;;;4.80;;
78796;SDS011;68145;52.514;13.460;2023-10-31T00:20:58;6.25;;;4.40;;
78796;SDS011;68145;52.514;13.460;2023-10-31T00:23:24;7.53;;;5.13;;
78796;SDS011;68145;52.514;13.460;2023-10-31T00:25:50;8.52;;;4.78;;
78796;SDS011;68145;52.514;13.460;2023-10-31T00:28:16;10.07;;;5.57;;
78796;SDS011;68145;52.514;13.460;2023-10-31T00:30:42;17.92;;;9.95;;
78796;SDS011;68145;52.514;13.460;2023-10-31T00:33:08;15.27;;;9.45;;
78796;SDS011;68145;52.514;13.460;2023-10-31T00:35:34;10.30;;;7.13;;
78796;SDS011;68145;52.514;13.460;2023-10-31T00:38:00;9.15;;;6.55;;
78796;SDS011;68145;52.514;13.460;2023-10-31T00:40:26;8.70;;;6.13;;
78796;SDS011;68145;52.514;13.460;2023-10-31T00:42:52;7.68;;;5.03;;
78796;SDS011;68145;52.514;13.460;2023-10-31T00:45:19;7.65;;;5.20;;
78796;SDS011;68145;52.514;13.460;2023-10-31T00:47:45;7.85;;;5.13;;
78796;SDS011;68145;52.514;13.460;2023-10-31T00:50:11;11.00;;;5.07;;
78796;SDS011;68145;52.514;13.460;2023-10-31T00:52:37;10.02;;;5.00;;
78796;SDS011;68145;52.514;13.460;2023-10-31T00:55:03;7.95;;;5.03;;
78796;SDS011;68145;52.514;13.460;2023-10-31T00:57:29;8.80;;;5.15;;
78796;SDS011;68145;52.514;13.460;2023-10-31T00:59:55;11.07;;;5.43;;
78796;SDS011;68145;52.514;13.460;2023-10-31T01:02:21;8.65;;;5.20;;
78796;SDS011;68145;52.514;13.460;2023-10-31T01:04:47;8.48;;;5.00;;
78796;SDS011;68145;52.514;13.460;2023-10-31T01:07:13;8.25;;;4.97;;
78796;SDS011;68145;52.514;13.460;2023-10-31T01:09:42;8.80;;;4.70;;
78796;SDS011;68145;52.514;13.460;2023-10-31T01:12:08;9.75;;;4.80;;
78796;SDS011;68145;52.514;13.460;2023-10-31T01:14:36;7.10;;;4.50;;
78796;SDS011;68145;52.514;13.460;2023-10-31T01:17:02;8.63;;;4.90;;
78796;SDS011;68145;52.514;13.460;2023-10-31T01:19:28;10.68;;;5.32;;
78796;SDS011;68145;52.514;13.460;2023-10-31T01:21:54;7.85;;;4.80;;
78796;SDS011;68145;52.514;13.460;2023-10-31T01:24:20;7.82;;;5.10;;
78796;SDS011;68145;52.514;13.460;2023-10-31T01:26:48;7.28;;;4.93;;
78796;SDS011;68145;52.514;13.460;2023-10-31T01:29:14;10.07;;;6.55;;
78796;SDS011;68145;52.514;13.460;2023-10-31T01:31:41;9.32;;;4.93;;
78796;SDS011;68145;52.514;13.460;2023-10-31T01:34:07;6.75;;;4.65;;
78796;SDS011;68145;52.514;13.460;2023-10-31T01:36:33;7.82;;;5.00;;
78796;SDS011;68145;52.514;13.460;2023-10-31T01:38:59;8.88;;;5.40;;
78796;SDS011;68145;52.514;13.460;2023-10-31T01:41:25;9.68;;;5.35;;
78796;SDS011;68145;52.514;13.460;2023-10-31T01:43:51;11.60;;;5.82;;
78796;SDS011;68145;52.514;13.460;2023-10-31T01:46:17;9.82;;;5.60;;
78796;SDS011;68145;52.514;13.460;2023-10-31T01:48:43;7.30;;;5.07;;
78796;SDS011;68145;52.514;13.460;2023-10-31T01:51:09;7.43;;;4.70;;
78796;SDS011;68145;52.514;13.460;2023-10-31T01:53:36;9.30;;;4.65;;
78796;SDS011;68145;52.514;13.460;2023-10-31T01:56:02;11.32;;;5.07;;
78796;SDS011;68145;52.514;13.460;2023-10-31T01:58:32;9.77;;;5.40;;
78796;SDS011;68145;52.514;13.460;2023-10-31T02:00:59;9.25;;;5.20;;
78796;SDS011;68145;52.514;13.460;2023-10-31T02:03:27;9.23;;;5.43;;
78796;SDS011;68145;52.514;13.460;2023-10-31T02:05:53;7.80;;;5.78;;
78796;SDS011;68145;52.514;13.460;2023-10-31T02:08:19;8.18;;;5.00;;
78796;SDS011;68145;52.514;13.460;2023-10-31T02:10:46;8.25;;;5.50;;
78796;SDS011;68145;52.514;13.460;2023-10-31T02:13:12;10.07;;;5.65;;
78796;SDS011;68145;52.514;13.460;2023-10-31T02:15:39;9.10;;;5.82;;
78796;SDS011;68145;52.514;13.460;2023-10-31T02:18:05;9.95;;;5.63;;
78796;SDS011;68145;52.514;13.460;2023-10-31T02:20:31;9.40;;;5.55;;
78796;SDS011;68145;52.514;13.460;2023-10-31T02:22:57;9.93;;;6.25;;
78796;SDS011;68145;52.514;13.460;2023-10-31T02:25:23;9.73;;;6.00;;
78796;SDS011;68145;52.514;13.460;2023-10-31T02:27:49;8.93;;;6.13;;
78796;SDS011;68145;52.514;13.460;2023-10-31T02:30:15;8.98;;;5.63;;
78796;SDS011;68145;52.514;13.460;2023-10-31T02:32:41;8.80;;;5.03;;
78796;SDS011;68145;52.514;13.460;2023-10-31T02:35:08;9.60;;;5.90;;
78796;SDS011;68145;52.514;13.460;2023-10-31T02:37:34;9.00;;;5.18;;
78796;SDS011;68145;52.514;13.460;2023-10-31T02:40:00;8.90;;;5.88;;
78796;SDS011;68145;52.514;13.460;2023-10-31T02:42:26;11.07;;;6.07;;
78796;SDS011;68145;52.514;13.460;2023-10-31T02:44:53;9.23;;;5.93;;
78796;SDS011;68145;52.514;13.460;2023-10-31T02:47:19;9.23;;;6.38;;
78796;SDS011;68145;52.514;13.460;2023-10-31T02:49:45;12.30;;;6.05;;
78796;SDS011;68145;52.514;13.460;2023-10-31T02:52:11;11.00;;;5.63;;
78796;SDS011;68145;52.514;13.460;2023-10-31T02:54:37;11.73;;;6.03;;
78796;SDS011;68145;52.514;13.460;2023-10-31T02:57:03;8.43;;;5.80;;
78796;SDS011;68145;52.514;13.460;2023-10-31T02:59:29;12.85;;;6.32;;
78796;SDS011;68145;52.514;13.460;2023-10-31T03:01:56;10.50;;;6.18;;
78796;SDS011;68145;52.514;13.460;2023-10-31T03:04:23;10.18;;;6.50;;
78796;SDS011;68145;52.514;13.460;2023-10-31T03:06:49;11.82;;;6.30;;
78796;SDS011;68145;52.514;13.460;2023-10-31T03:09:15;11.98;;;6.35;;
78796;SDS011;68145;52.514;13.460;2023-10-31T03:11:41;12.32;;;6.65;;
78796;SDS011;68145;52.514;13.460;2023-10-31T03:14:07;10.85;;;6.18;;
78796;SDS011;68145;52.514;13.460;2023-10-31T03:16:33;9.50;;;6.60;;
78796;SDS011;68145;52.514;13.460;2023-10-31T03:19:00;10.45;;;5.93;;
78796;SDS011;68145;52.514;13.460;2023-10-31T03:21:26;12.35;;;6.50;;
78796;SDS011;68145;52.514;13.460;2023-10-31T03:23:52;9.32;;;6.28;;
78796;SDS011;68145;52.514;13.460;2023-10-31T03:26:20;11.40;;;6.18;;
78796;SDS011;68145;52.514;13.460;2023-10-31T03:28:47;13.77;;;8.07;;
78796;SDS011;68145;52.514;13.460;2023-10-31T03:31:13;12.43;;;6.90;;
78796;SDS011;68145;52.514;13.460;2023-10-31T03:33:40;13.82;;;7.30;;
78796;SDS011;68145;52.514;13.460;2023-10-31T03:36:07;9.73;;;6.78;;
78796;SDS011;68145;52.514;13.460;2023-10-31T03:38:33;12.52;;;7.35;;
78796;SDS011;68145;52.514;13.460;2023-10-31T03:41:00;9.85;;;6.63;;
78796;SDS011;68145;52.514;13.460;2023-10-31T03:43:26;11.02;;;7.00;;
78796;SDS011;68145;52.514;13.460;2023-10-31T03:45:52;11.52;;;6.72;;
78796;SDS011;68145;52.514;13.460;2023-10-31T03:48:18;13.10;;;7.63;;
78796;SDS011;68145;52.514;13.460;2023-10-31T03:50:44;12.82;;;7.93;;
78796;SDS011;68145;52.514;13.460;2023-10-31T03:53:10;10.23;;;7.28;;
78796;SDS011;68145;52.514;13.460;2023-10-31T03:55:36;11.85;;;7.30;;
78796;SDS011;68145;52.514;13.460;2023-10-31T03:58:02;12.45;;;8.63;;
78796;SDS011;68145;52.514;13.460;2023-10-31T04:00:29;13.45;;;8.25;;
78796;SDS011;68145;52.514;13.460;2023-10-31T04:02:55;12.15;;;7.53;;
78796;SDS011;68145;52.514;13.460;2023-10-31T04:05:21;12.00;;;7.90;;
78796;SDS011;68145;52.514;13.460;2023-10-31T04:07:51;12.80;;;8.10;;
78796;SDS011;68145;52.514;13.460;2023-10-31T04:10:17;10.63;;;7.50;;
78796;SDS011;68145;52.514;13.460;2023-10-31T04:12:44;13.73;;;7.50;;
78796;SDS011;68145;52.514;13.460;2023-10-31T04:15:10;12.82;;;7.43;;
78796;SDS011;68145;52.514;13.460;2023-10-31T04:17:37;12.23;;;7.47;;
78796;SDS011;68145;52.514;13.460;2023-10-31T04:20:03;12.13;;;7.82;;
78796;SDS011;68145;52.514;13.460;2023-10-31T04:22:29;11.35;;;7.15;;
78796;SDS011;68145;52.514;13.460;2023-10-31T04:24:55;12.02;;;7.75;;
78796;SDS011;68145;52.514;13.460;2023-10-31T04:27:22;13.68;;;7.15;;
78796;SDS011;68145;52.514;13.460;2023-10-31T04:29:48;11.68;;;7.57;;
78796;SDS011;68145;52.514;13.460;2023-10-31T04:32:15;13.00;;;7.95;;
78796;SDS011;68145;52.514;13.460;2023-10-31T04:34:42;14.32;;;8.02;;
78796;SDS011;68145;52.514;13.460;2023-10-31T04:37:08;13.02;;;7.72;;
78796;SDS011;68145;52.514;13.460;2023-10-31T04:39:34;12.70;;;8.02;;
78796;SDS011;68145;52.514;13.460;2023-10-31T04:42:00;11.90;;;8.02;;
78796;SDS011;68145;52.514;13.460;2023-10-31T04:44:26;13.23;;;8.20;;
78796;SDS011;68145;52.514;13.460;2023-10-31T04:46:52;15.05;;;7.60;;
78796;SDS011;68145;52.514;13.460;2023-10-31T04:49:18;18.90;;;8.45;;
78796;SDS011;68145;52.514;13.460;2023-10-31T04:51:45;12.05;;;8.02;;
78796;SDS011;68145;52.514;13.460;2023-10-31T04:54:14;12.43;;;8.02;;
78796;SDS011;68145;52.514;13.460;2023-10-31T04:56:40;10.52;;;7.85;;
78796;SDS011;68145;52.514;13.460;2023-10-31T04:59:06;11.32;;;7.55;;
78796;SDS011;68145;52.514;13.460;2023-10-31T05:01:32;11.52;;;8.20;;
78796;SDS011;68145;52.514;13.460;2023-10-31T05:03:58;13.13;;;8.57;;
78796;SDS011;68145;52.514;13.460;2023-10-31T05:06:30;13.80;;;8.45;;
78796;SDS011;68145;52.514;13.460;2023-10-31T05:08:56;12.00;;;7.80;;
78796;SDS011;68145;52.514;13.460;2023-10-31T05:11:22;15.18;;;8.52;;
78796;SDS011;68145;52.514;13.460;2023-10-31T05:13:48;13.77;;;8.30;;
78796;SDS011;68145;52.514;13.460;2023-10-31T05:16:15;13.15;;;8.48;;
78796;SDS011;68145;52.514;13.460;2023-10-31T05:18:41;13.55;;;8.40;;
78796;SDS011;68145;52.514;13.460;2023-10-31T05:21:07;12.50;;;8.93;;
78796;SDS011;68145;52.514;13.460;2023-10-31T05:23:33;15.02;;;7.82;;
78796;SDS011;68145;52.514;13.460;2023-10-31T05:25:59;12.70;;;7.65;;
78796;SDS011;68145;52.514;13.460;2023-10-31T05:28:25;15.63;;;8.80;;
78796;SDS011;68145;52.514;13.460;2023-10-31T05:30:51;16.10;;;9.07;;
78796;SDS011;68145;52.514;13.460;2023-10-31T05:33:17;13.27;;;8.38;;
78796;SDS011;68145;52.514;13.460;2023-10-31T05:35:43;15.38;;;8.50;;
78796;SDS011;68145;52.514;13.460;2023-10-31T05:38:09;13.07;;;8.38;;
78796;SDS011;68145;52.514;13.460;2023-10-31T05:40:35;15.52;;;8.82;;
78796;SDS011;68145;52.514;13.460;2023-10-31T05:43:01;12.45;;;8.63;;
78796;SDS011;68145;52.514;13.460;2023-10-31T05:45:28;14.43;;;8.93;;
78796;SDS011;68145;52.514;13.460;2023-10-31T05:47:54;14.85;;;8.82;;
78796;SDS011;68145;52.514;13.460;2023-10-31T05:50:20;13.50;;;8.77;;
78796;SDS011;68145;52.514;13.460;2023-10-31T05:52:46;15.30;;;8.23;;
78796;SDS011;68145;52.514;13.460;2023-10-31T05:55:12;13.68;;;8.60;;
78796;SDS011;68145;52.514;13.460;2023-10-31T05:57:39;13.60;;;8.40;;
78796;SDS011;68145;52.514;13.460;2023-10-31T06:00:05;13.10;;;8.65;;
78796;SDS011;68145;52.514;13.460;2023-10-31T06:02:32;11.95;;;7.65;;
78796;SDS011;68145;52.514;13.460;2023-10-31T06:04:58;11.73;;;8.30;;
78796;SDS011;68145;52.514;13.460;2023-10-31T06:07:24;12.07;;;8.00;;
78796;SDS011;68145;52.514;13.460;2023-10-31T06:09:50;9.95;;;7.35;;
78796;SDS011;68145;52.514;13.460;2023-10-31T06:12:16;9.38;;;7.00;;
78796;SDS011;68145;52.514;13.460;2023-10-31T06:14:42;11.05;;;7.32;;
78796;SDS011;68145;52.514;13.460;2023-10-31T06:17:08;12.43;;;7.72;;
78796;SDS011;68145;52.514;13.460;2023-10-31T06:19:38;10.35;;;7.28;;
78796;SDS011;68145;52.514;13.460;2023-10-31T06:22:10;14.02;;;9.20;;
78796;SDS011;68145;52.514;13.460;2023-10-31T06:24:36;12.20;;;7.97;;
78796;SDS011;68145;52.514;13.460;2023-10-31T06:27:02;9.95;;;7.13;;
78796;SDS011;68145;52.514;13.460;2023-10-31T06:29:28;11.30;;;7.43;;
78796;SDS011;68145;52.514;13.460;2023-10-31T06:31:54;11.68;;;7.90;;
78796;SDS011;68145;52.514;13.460;2023-10-31T06:34:20;14.45;;;8.93;;
78796;SDS011;68145;52.514;13.460;2023-10-31T06:36:46;11.98;;;7.43;;
78796;SDS011;68145;52.514;13.460;2023-10-31T06:39:12;12.77;;;8.13;;
78796;SDS011;68145;52.514;13.460;2023-10-31T06:41:38;13.82;;;8.43;;
78796;SDS011;68145;52.514;13.460;2023-10-31T06:44:05;15.40;;;10.77;;
78796;SDS011;68145;52.514;13.460;2023-10-31T06:46:33;11.95;;;7.05;;
78796;SDS011;68145;52.514;13.460;2023-10-31T06:48:59;18.45;;;12.60;;
78796;SDS011;68145;52.514;13.460;2023-10-31T06:51:25;9.95;;;7.22;;
78796;SDS011;68145;52.514;13.460;2023-10-31T06:53:52;10.35;;;7.82;;
78796;SDS011;68145;52.514;13.460;2023-10-31T06:56:18;16.45;;;8.77;;
78796;SDS011;68145;52.514;13.460;2023-10-31T06:58:47;9.85;;;6.38;;
78796;SDS011;68145;52.514;13.460;2023-10-31T07:01:14;9.38;;;7.30;;
78796;SDS011;68145;52.514;13.460;2023-10-31T07:03:52;10.00;;;7.00;;
78796;SDS011;68145;52.514;13.460;2023-10-31T07:06:18;9.32;;;5.90;;
78796;SDS011;68145;52.514;13.460;2023-10-31T07:08:46;9.63;;;5.28;;
78796;SDS011;68145;52.514;13.460;2023-10-31T07:11:12;9.73;;;6.40;;
78796;SDS011;68145;52.514;13.460;2023-10-31T07:13:38;11.93;;;7.07;;
78796;SDS011;68145;52.514;13.460;2023-10-31T07:16:04;7.70;;;5.40;;
78796;SDS011;68145;52.514;13.460;2023-10-31T07:18:30;7.85;;;5.63;;
78796;SDS011;68145;52.514;13.460;2023-10-31T07:20:56;10.52;;;7.70;;
78796;SDS011;68145;52.514;13.460;2023-10-31T07:23:23;8.65;;;5.60;;
78796;SDS011;68145;52.514;13.460;2023-10-31T07:25:49;7.30;;;5.10;;
78796;SDS011;68145;52.514;13.460;2023-10-31T07:28:15;5.30;;;3.90;;
78796;SDS011;68145;52.514;13.460;2023-10-31T07:30:45;3.83;;;3.25;;
78796;SDS011;68145;52.514;13.460;2023-10-31T07:33:32;4.57;;;2.58;;
78796;SDS011;68145;52.514;13.460;2023-10-31T07:35:59;4.28;;;2.20;;
78796;SDS011;68145;52.514;13.460;2023-10-31T07:38:25;3.55;;;2.60;;
78796;SDS011;68145;52.514;13.460;2023-10-31T07:40:51;3.22;;;2.33;;
78796;SDS011;68145;52.514;13.460;2023-10-31T07:43:17;4.55;;;2.17;;
78796;SDS011;68145;52.514;13.460;2023-10-31T07:45:43;2.30;;;2.00;;
78796;SDS011;68145;52.514;13.460;2023-10-31T07:48:09;3.00;;;2.35;;
78796;SDS011;68145;52.514;13.460;2023-10-31T07:50:35;5.22;;;2.97;;
78796;SDS011;68145;52.514;13.460;2023-10-31T07:53:01;8.05;;;3.95;;
78796;SDS011;68145;52.514;13.460;2023-10-31T07:55:28;6.47;;;2.53;;
78796;SDS011;68145;52.514;13.460;2023-10-31T07:57:54;3.72;;;2.75;;
78796;SDS011;68145;52.514;13.460;2023-10-31T08:00:20;3.38;;;2.10;;
78796;SDS011;68145;52.514;13.460;2023-10-31T08:02:47;3.83;;;2.30;;
78796;SDS011;68145;52.514;13.460;2023-10-31T08:05:13;3.42;;;2.72;;
78796;SDS011;68145;52.514;13.460;2023-10-31T08:07:40;4.13;;;3.13;;
78796;SDS011;68145;52.514;13.460;2023-10-31T08:10:06;3.17;;;1.95;;
78796;SDS011;68145;52.514;13.460;2023-10-31T08:12:33;3.63;;;2.10;;
78796;SDS011;68145;52.514;13.460;2023-10-31T08:14:59;3.22;;;2.05;;
78796;SDS011;68145;52.514;13.460;2023-10-31T08:17:25;3.08;;;2.00;;
78796;SDS011;68145;52.514;13.460;2023-10-31T08:19:51;5.18;;;2.35;;
78796;SDS011;68145;52.514;13.460;2023-10-31T08:22:17;4.65;;;2.20;;
78796;SDS011;68145;52.514;13.460;2023-10-31T08:24:43;3.38;;;2.25;;
78796;SDS011;68145;52.514;13.460;2023-10-31T08:27:09;2.58;;;1.70;;
78796;SDS011;68145;52.514;13.460;2023-10-31T08:29:36;2.67;;;1.90;;
78796;SDS011;68145;52.514;13.460;2023-10-31T08:32:02;2.65;;;1.70;;
78796;SDS011;68145;52.514;13.460;2023-10-31T08:34:28;2.20;;;1.60;;
78796;SDS011;68145;52.514;13.460;2023-10-31T08:36:54;4.25;;;1.88;;
78796;SDS011;68145;52.514;13.460;2023-10-31T08:39:21;2.70;;;2.30;;
78796;SDS011;68145;52.514;13.460;2023-10-31T08:41:54;2.55;;;1.77;;
78796;SDS011;68145;52.514;13.460;2023-10-31T08:44:21;2.35;;;1.50;;
78796;SDS011;68145;52.514;13.460;2023-10-31T08:46:47;4.70;;;1.80;;
78796;SDS011;68145;52.514;13.460;2023-10-31T08:49:14;2.15;;;1.50;;
78796;SDS011;68145;52.514;13.460;2023-10-31T08:51:40;3.25;;;1.55;;
78796;SDS011;68145;52.514;13.460;2023-10-31T08:54:06;1.80;;;1.27;;
78796;SDS011;68145;52.514;13.460;2023-10-31T08:56:34;1.50;;;1.15;;
78796;SDS011;68145;52.514;13.460;2023-10-31T08:59:00;2.53;;;1.38;;
78796;SDS011;68145;52.514;13.460;2023-10-31T09:01:26;2.58;;;1.50;;
78796;SDS011;68145;52.514;13.460;2023-10-31T09:03:54;1.88;;;1.40;;
78796;SDS011;68145;52.514;13.460;2023-10-31T09:06:20;3.47;;;1.60;;
78796;SDS011;68145;52.514;13.460;2023-10-31T09:08:46;5.78;;;3.90;;
78796;SDS011;68145;52.514;13.460;2023-10-31T09:11:12;1.60;;;1.30;;
78796;SDS011;68145;52.514;13.460;2023-10-31T09:13:38;2.90;;;1.98;;
78796;SDS011;68145;52.514;13.460;2023-10-31T09:16:04;3.55;;;1.35;;
78796;SDS011;68145;52.514;13.460;2023-10-31T09:18:30;3.70;;;1.60;;
78796;SDS011;68145;52.514;13.460;2023-10-31T09:20:57;3.38;;;1.30;;
78796;SDS011;68145;52.514;13.460;2023-10-31T09:23:23;8.23;;;4.28;;
78796;SDS011;68145;52.514;13.460;2023-10-31T09:25:49;1.98;;;1.20;;
78796;SDS011;68145;52.514;13.460;2023-10-31T09:28:18;1.85;;;1.10;;
78796;SDS011;68145;52.514;13.460;2023-10-31T09:30:48;2.65;;;1.73;;
78796;SDS011;68145;52.514;13.460;2023-10-31T09:33:14;2.30;;;1.33;;
78796;SDS011;68145;52.514;13.460;2023-10-31T09:35:40;2.42;;;1.20;;
78796;SDS011;68145;52.514;13.460;2023-10-31T09:38:06;1.70;;;1.00;;
78796;SDS011;68145;52.514;13.460;2023-10-31T09:40:33;2.47;;;1.40;;
78796;SDS011;68145;52.514;13.460;2023-10-31T09:42:59;1.35;;;1.20;;
78796;SDS011;68145;52.514;13.460;2023-10-31T09:45:25;2.08;;;1.40;;
78796;SDS011;68145;52.514;13.460;2023-10-31T09:47:51;2.35;;;1.40;;
78796;SDS011;68145;52.514;13.460;2023-10-31T09:50:17;2.20;;;1.35;;
78796;SDS011;68145;52.514;13.460;2023-10-31T09:52:43;2.00;;;1.40;;
78796;SDS011;68145;52.514;13.460;2023-10-31T09:55:10;2.83;;;1.95;;
78796;SDS011;68145;52.514;13.460;2023-10-31T09:57:36;5.47;;;1.80;;
78796;SDS011;68145;52.514;13.460;2023-10-31T10:00:02;3.35;;;1.50;;
78796;SDS011;68145;52.514;13.460;2023-10-31T10:02:28;10.43;;;6.43;;
78796;SDS011;68145;52.514;13.460;2023-10-31T10:04:54;4.22;;;2.40;;
78796;SDS011;68145;52.514;13.460;2023-10-31T10:07:20;4.93;;;2.85;;
78796;SDS011;68145;52.514;13.460;2023-10-31T10:09:46;2.30;;;1.75;;
78796;SDS011;68145;52.514;13.460;2023-10-31T10:12:13;3.40;;;2.53;;
78796;SDS011;68145;52.514;13.460;2023-10-31T10:14:39;5.47;;;1.77;;
78796;SDS011;68145;52.514;13.460;2023-10-31T10:19:41;3.08;;;1.77;;
78796;SDS011;68145;52.514;13.460;2023-10-31T10:22:07;2.58;;;1.80;;
78796;SDS011;68145;52.514;13.460;2023-10-31T10:24:35;3.70;;;1.77;;
78796;SDS011;68145;52.514;13.460;2023-10-31T10:27:01;5.15;;;2.65;;
78796;SDS011;68145;52.514;13.460;2023-10-31T10:29:27;9.75;;;4.97;;
78796;SDS011;68145;52.514;13.460;2023-10-31T10:31:53;2.50;;;1.60;;
78796;SDS011;68145;52.514;13.460;2023-10-31T10:34:19;3.05;;;2.00;;
78796;SDS011;68145;52.514;13.460;2023-10-31T10:36:46;3.28;;;1.70;;
78796;SDS011;68145;52.514;13.460;2023-10-31T10:39:14;2.15;;;1.65;;
78796;SDS011;68145;52.514;13.460;2023-10-31T10:41:44;3.42;;;2.53;;
78796;SDS011;68145;52.514;13.460;2023-10-31T10:46:39;2.97;;;1.90;;
78796;SDS011;68145;52.514;13.460;2023-10-31T10:49:06;1.90;;;1.50;;
78796;SDS011;68145;52.514;13.460;2023-10-31T10:51:37;2.08;;;1.50;;
78796;SDS011;68145;52.514;13.460;2023-10-31T10:59:23;3.95;;;1.75;;
78796;SDS011;68145;52.514;13.460;2023-10-31T11:01:52;2.67;;;1.90;;
78796;SDS011;68145;52.514;13.460;2023-10-31T11:04:19;2.40;;;1.80;;
78796;SDS011;68145;52.514;13.460;2023-10-31T11:06:45;3.10;;;2.10;;
78796;SDS011;68145;52.514;13.460;2023-10-31T11:09:11;3.38;;;2.17;;
78796;SDS011;68145;52.514;13.460;2023-10-31T11:11:37;3.95;;;1.70;;
78796;SDS011;68145;52.514;13.460;2023-10-31T11:14:04;2.58;;;1.90;;
78796;SDS011;68145;52.514;13.460;2023-10-31T11:16:34;3.47;;;2.50;;
78796;SDS011;68145;52.514;13.460;2023-10-31T11:19:03;3.17;;;2.20;;
78796;SDS011;68145;52.514;13.460;2023-10-31T11:21:31;3.45;;;2.60;;
78796;SDS011;68145;52.514;13.460;2023-10-31T11:24:00;7.18;;;4.15;;
78796;SDS011;68145;52.514;13.460;2023-10-31T11:26:29;4.65;;;2.55;;
78796;SDS011;68145;52.514;13.460;2023-10-31T11:29:06;5.15;;;2.58;;
78796;SDS011;68145;52.514;13.460;2023-10-31T11:31:34;2.72;;;2.20;;
78796;SDS011;68145;52.514;13.460;2023-10-31T11:34:04;3.78;;;2.15;;
78796;SDS011;68145;52.514;13.460;2023-10-31T11:36:31;6.88;;;3.85;;
78796;SDS011;68145;52.514;13.460;2023-10-31T11:39:14;11.00;;;7.78;;
78796;SDS011;68145;52.514;13.460;2023-10-31T11:41:45;13.40;;;7.70;;
78796;SDS011;68145;52.514;13.460;2023-10-31T11:44:11;3.45;;;2.20;;
78796;SDS011;68145;52.514;13.460;2023-10-31T11:46:37;4.50;;;2.67;;
78796;SDS011;68145;52.514;13.460;2023-10-31T11:49:04;3.95;;;2.10;;
78796;SDS011;68145;52.514;13.460;2023-10-31T11:51:32;3.20;;;2.08;;
78796;SDS011;68145;52.514;13.460;2023-10-31T11:54:01;2.80;;;2.10;;
78796;SDS011;68145;52.514;13.460;2023-10-31T11:56:27;2.45;;;1.92;;
78796;SDS011;68145;52.514;13.460;2023-10-31T11:58:54;3.10;;;2.03;;
78796;SDS011;68145;52.514;13.460;2023-10-31T12:01:20;4.85;;;1.98;;
78796;SDS011;68145;52.514;13.460;2023-10-31T12:03:46;3.35;;;1.77;;
78796;SDS011;68145;52.514;13.460;2023-10-31T12:06:14;2.30;;;1.73;;
78796;SDS011;68145;52.514;13.460;2023-10-31T12:08:41;3.22;;;1.83;;
78796;SDS011;68145;52.514;13.460;2023-10-31T12:11:12;3.78;;;2.03;;
78796;SDS011;68145;52.514;13.460;2023-10-31T12:13:40;2.13;;;1.42;;
78796;SDS011;68145;52.514;13.460;2023-10-31T12:16:07;3.30;;;2.33;;
78796;SDS011;68145;52.514;13.460;2023-10-31T12:18:34;4.97;;;2.80;;
78796;SDS011;68145;52.514;13.460;2023-10-31T12:21:00;4.97;;;3.10;;
78796;SDS011;68145;52.514;13.460;2023-10-31T12:23:26;6.38;;;2.90;;
78796;SDS011;68145;52.514;13.460;2023-10-31T12:25:53;2.58;;;1.73;;
78796;SDS011;68145;52.514;13.460;2023-10-31T12:28:20;2.05;;;1.45;;
78796;SDS011;68145;52.514;13.460;2023-10-31T12:30:47;3.35;;;1.58;;
78796;SDS011;68145;52.514;13.460;2023-10-31T12:33:14;2.83;;;1.63;;
78796;SDS011;68145;52.514;13.460;2023-10-31T12:35:40;2.10;;;1.40;;
78796;SDS011;68145;52.514;13.460;2023-10-31T12:38:06;2.58;;;1.45;;
78796;SDS011;68145;52.514;13.460;2023-10-31T12:40:33;1.92;;;1.30;;
78796;SDS011;68145;52.514;13.460;2023-10-31T12:42:59;2.03;;;1.20;;
78796;SDS011;68145;52.514;13.460;2023-10-31T12:45:27;1.63;;;1.20;;
78796;SDS011;68145;52.514;13.460;2023-10-31T12:48:06;2.30;;;1.30;;
78796;SDS011;68145;52.514;13.460;2023-10-31T12:50:33;1.90;;;1.20;;
78796;SDS011;68145;52.514;13.460;2023-10-31T12:53:01;4.05;;;1.30;;
78796;SDS011;68145;52.514;13.460;2023-10-31T12:55:28;3.40;;;1.40;;
78796;SDS011;68145;52.514;13.460;2023-10-31T12:57:55;2.90;;;1.20;;
78796;SDS011;68145;52.514;13.460;2023-10-31T13:00:22;4.00;;;1.23;;
78796;SDS011;68145;52.514;13.460;2023-10-31T13:02:52;3.67;;;1.40;;
78796;SDS011;68145;52.514;13.460;2023-10-31T13:05:18;1.63;;;1.27;;
78796;SDS011;68145;52.514;13.460;2023-10-31T13:07:51;2.42;;;1.58;;
78796;SDS011;68145;52.514;13.460;2023-10-31T13:10:18;3.45;;;1.55;;
78796;SDS011;68145;52.514;13.460;2023-10-31T13:12:44;2.85;;;1.30;;
78796;SDS011;68145;52.514;13.460;2023-10-31T13:15:11;2.22;;;1.25;;
78796;SDS011;68145;52.514;13.460;2023-10-31T13:17:38;5.18;;;2.95;;
78796;SDS011;68145;52.514;13.460;2023-10-31T13:22:34;4.53;;;1.95;;
78796;SDS011;68145;52.514;13.460;2023-10-31T13:25:01;2.13;;;1.30;;
78796;SDS011;68145;52.514;13.460;2023-10-31T13:27:30;1.60;;;1.15;;
78796;SDS011;68145;52.514;13.460;2023-10-31T13:29:56;2.78;;;1.85;;
78796;SDS011;68145;52.514;13.460;2023-10-31T13:32:22;2.05;;;1.33;;
78796;SDS011;68145;52.514;13.460;2023-10-31T13:34:48;3.22;;;1.40;;
78796;SDS011;68145;52.514;13.460;2023-10-31T13:37:14;1.92;;;1.30;;
78796;SDS011;68145;52.514;13.460;2023-10-31T13:39:40;2.53;;;1.30;;
78796;SDS011;68145;52.514;13.460;2023-10-31T13:42:06;1.77;;;1.33;;
78796;SDS011;68145;52.514;13.460;2023-10-31T13:44:33;2.92;;;1.20;;
78796;SDS011;68145;52.514;13.460;2023-10-31T13:46:59;2.17;;;1.23;;
78796;SDS011;68145;52.514;13.460;2023-10-31T13:49:26;2.67;;;1.35;;
78796;SDS011;68145;52.514;13.460;2023-10-31T13:51:52;1.05;;;0.90;;
78796;SDS011;68145;52.514;13.460;2023-10-31T13:54:18;1.70;;;1.30;;
78796;SDS011;68145;52.514;13.460;2023-10-31T13:56:45;2.15;;;1.27;;
78796;SDS011;68145;52.514;13.460;2023-10-31T14:01:39;2.00;;;1.20;;
78796;SDS011;68145;52.514;13.460;2023-10-31T14:04:06;3.10;;;1.20;;
78796;SDS011;68145;52.514;13.460;2023-10-31T14:06:32;2.17;;;1.33;;
78796;SDS011;68145;52.514;13.460;2023-10-31T14:08:59;0.98;;;0.88;;
78796;SDS011;68145;52.514;13.460;2023-10-31T14:11:25;2.45;;;1.20;;
78796;SDS011;68145;52.514;13.460;2023-10-31T14:13:51;2.35;;;1.05;;
78796;SDS011;68145;52.514;13.460;2023-10-31T14:16:18;2.40;;;1.00;;
78796;SDS011;68145;52.514;13.460;2023-10-31T14:18:44;1.45;;;1.23;;
78796;SDS011;68145;52.514;13.460;2023-10-31T14:21:11;1.35;;;1.10;;
78796;SDS011;68145;52.514;13.460;2023-10-31T14:23:37;1.30;;;1.10;;
78796;SDS011;68145;52.514;13.460;2023-10-31T14:26:03;1.85;;;1.10;;
78796;SDS011;68145;52.514;13.460;2023-10-31T14:28:31;3.97;;;1.80;;
78796;SDS011;68145;52.514;13.460;2023-10-31T14:30:57;2.88;;;1.55;;
78796;SDS011;68145;52.514;13.460;2023-10-31T14:33:24;1.40;;;1.10;;
78796;SDS011;68145;52.514;13.460;2023-10-31T14:35:50;2.80;;;1.70;;
78796;SDS011;68145;52.514;13.460;2023-10-31T14:38:16;2.53;;;1.50;;
78796;SDS011;68145;52.514;13.460;2023-10-31T14:40:42;3.42;;;1.52;;
78796;SDS011;68145;52.514;13.460;2023-10-31T14:43:08;3.17;;;2.10;;